Time;durP1;ratioP1;P1;durP2;ratioP2;P2;SDS_P1;SDS_P2;PMS_P1;PMS_P2;Temp;Humidity;BMP_temperature;BMP_pressure;BME280_temperature;BME280_humidity;BME280_pressure;Samples;Min_cycle;Max_cycle;Signal;HPM_P1;HPM_P2
2023/07/05 00:02:13;;;;;;;7.30;5.70;;;;;;;18.44;100.00;97335.91;110219;1242;59753;-68
2023/07/05 00:04:45;;;;;;;7.80;5.60;;;;;;;18.41;100.00;97332.39;110226;1241;59041;-68
2023/07/05 00:07:16;;;;;;;6.30;4.50;;;;;;;18.37;100.00;97336.79;110157;1241;71383;-67
2023/07/05 00:09:47;;;;;;;6.90;5.20;;;;;;;18.29;100.00;97336.80;110149;1244;69281;-66
2023/07/05 00:12:19;;;;;;;5.90;4.80;;;;;;;18.25;100.00;97340.09;110147;1241;68652;-66
2023/07/05 00:14:49;;;;;;;5.70;4.00;;;;;;;18.22;100.00;97345.85;110115;1245;59667;-66
2023/07/05 00:17:19;;;;;;;5.00;3.80;;;;;;;18.20;100.00;97347.09;110147;1245;59748;-66
2023/07/05 00:19:52;;;;;;;4.30;3.70;;;;;;;18.19;100.00;97350.20;110155;1245;71182;-66
2023/07/05 00:22:21;;;;;;;6.00;4.30;;;;;;;18.18;100.00;97346.47;110147;1241;68420;-66
2023/07/05 00:24:53;;;;;;;5.30;3.60;;;;;;;18.16;100.00;97344.44;110177;1245;68486;-66
2023/07/05 00:27:25;;;;;;;5.50;3.80;;;;;;;18.12;100.00;97342.34;110178;1243;59720;-66
2023/07/05 00:29:58;;;;;;;6.30;3.50;;;;;;;18.10;100.00;97350.38;110109;1244;59681;-65
2023/07/05 00:32:28;;;;;;;4.90;3.70;;;;;;;18.07;100.00;97346.76;110182;1241;71423;-66
2023/07/05 00:35:01;;;;;;;6.40;5.00;;;;;;;18.04;100.00;97350.09;110147;1244;68502;-66
2023/07/05 00:37:33;;;;;;;6.80;5.40;;;;;;;17.99;100.00;97347.55;110137;1245;69119;-67
2023/07/05 00:40:04;;;;;;;6.60;5.60;;;;;;;17.94;100.00;97343.73;110244;1241;59692;-66
2023/07/05 00:42:38;;;;;;;8.60;6.20;;;;;;;17.89;100.00;97344.58;110204;1242;59681;-67
2023/07/05 00:45:09;;;;;;;8.80;7.00;;;;;;;17.85;100.00;97344.15;110198;1242;71216;-67
2023/07/05 00:47:42;;;;;;;8.00;6.40;;;;;;;17.80;100.00;97340.51;110223;1242;69102;-66
2023/07/05 00:50:18;;;;;;;10.00;7.60;;;;;;;17.77;100.00;97337.71;110179;1241;69098;-67
2023/07/05 00:52:54;;;;;;;9.20;6.40;;;;;;;17.72;100.00;97333.61;110374;1245;59736;-69
2023/07/05 00:55:28;;;;;;;9.50;7.70;;;;;;;17.67;100.00;97335.88;110463;1242;59768;-68
2023/07/05 00:58:03;;;;;;;10.60;7.90;;;;;;;17.63;100.00;97334.41;110364;1242;71774;-64
2023/07/05 01:00:34;;;;;;;14.60;11.20;;;;;;;17.59;100.00;97334.08;110560;1241;69264;-67
2023/07/05 01:03:13;;;;;;;14.50;10.60;;;;;;;17.55;100.00;97333.61;110252;1242;69388;-67
2023/07/05 01:05:44;;;;;;;11.90;9.60;;;;;;;17.51;100.00;97333.13;110450;1242;59678;-66
2023/07/05 01:08:14;;;;;;;12.00;9.60;;;;;;;17.48;100.00;97333.93;110479;1242;59627;-66
2023/07/05 01:10:56;;;;;;;10.10;8.50;;;;;;;17.44;100.00;97330.84;110589;1240;71540;-66
2023/07/05 01:13:54;;;;;;;10.90;7.10;;;;;;;17.38;100.00;97329.52;110156;1245;69228;-66
2023/07/05 01:16:39;;;;;;;6.80;5.40;;;;;;;17.29;100.00;97324.05;110412;1242;68609;-66
2023/07/05 01:19:20;;;;;;;7.90;5.90;;;;;;;17.23;100.00;97318.39;110329;1242;59740;-67
2023/07/05 01:22:11;;;;;;;6.50;5.10;;;;;;;17.15;100.00;97315.66;110602;1244;59737;-67
2023/07/05 01:25:15;;;;;;;7.50;6.00;;;;;;;17.09;100.00;97314.36;110460;1240;71378;-66
2023/07/05 01:27:57;;;;;;;7.20;5.00;;;;;;;17.05;100.00;97320.88;110506;1242;69179;-65
2023/07/05 01:30:47;;;;;;;7.00;5.20;;;;;;;17.02;100.00;97326.11;110500;1242;68378;-65
2023/07/05 01:33:29;;;;;;;7.80;5.80;;;;;;;17.01;100.00;97323.92;110329;1242;59692;-67
2023/07/05 01:35:58;;;;;;;10.70;7.90;;;;;;;17.01;100.00;97329.34;110336;1241;59663;-66
2023/07/05 01:38:31;;;;;;;12.10;9.90;;;;;;;17.02;100.00;97330.90;110343;1241;72048;-67
2023/07/05 01:41:07;;;;;;;12.90;10.10;;;;;;;17.02;100.00;97328.25;110229;1244;69755;-65
2023/07/05 01:43:45;;;;;;;11.40;8.70;;;;;;;16.98;100.00;97319.11;110335;1241;68389;-64
2023/07/05 01:46:17;;;;;;;13.30;8.70;;;;;;;16.94;100.00;97315.11;110150;1244;59728;-66
2023/07/05 01:49:05;;;;;;;11.40;8.70;;;;;;;16.91;100.00;97313.15;110344;1242;60110;-66
2023/07/05 01:51:51;;;;;;;10.50;8.10;;;;;;;16.88;100.00;97313.98;110371;1242;71445;-66
2023/07/05 01:54:30;;;;;;;11.30;7.40;;;;;;;16.86;100.00;97316.30;110418;1242;68304;-66
2023/07/05 01:57:11;;;;;;;10.90;7.30;;;;;;;16.84;100.00;97317.92;110444;1241;68534;-67
2023/07/05 02:00:07;;;;;;;10.30;7.60;;;;;;;16.81;100.00;97315.02;109337;1242;1375297;-68
2023/07/05 02:02:46;;;;;;;9.60;7.00;;;;;;;16.79;100.00;97314.12;110312;1239;59705;-67
2023/07/05 02:05:22;;;;;;;8.70;6.10;;;;;;;16.79;100.00;97313.79;110126;1245;71404;-66
2023/07/05 02:07:55;;;;;;;8.40;6.30;;;;;;;16.78;100.00;97313.71;110323;1242;69175;-67
2023/07/05 02:10:32;;;;;;;7.40;6.50;;;;;;;16.75;100.00;97316.82;110499;1238;69288;-65
2023/07/05 02:13:18;;;;;;;9.20;6.10;;;;;;;16.70;100.00;97317.47;110568;1242;59747;-66
2023/07/05 02:15:53;;;;;;;9.10;7.00;;;;;;;16.66;100.00;97309.95;110582;1242;59624;-66
2023/07/05 02:18:29;;;;;;;9.50;6.60;;;;;;;16.63;100.00;97310.39;110482;1241;70626;-66
2023/07/05 02:21:09;;;;;;;8.40;6.20;;;;;;;16.60;100.00;97309.91;110324;1243;69052;-66
2023/07/05 02:23:41;;;;;;;7.80;5.50;;;;;;;16.54;100.00;97312.91;110458;1242;69376;-64
2023/07/05 02:26:13;;;;;;;8.80;6.00;;;;;;;16.50;100.00;97310.16;110480;1243;59680;-65
2023/07/05 02:28:43;;;;;;;10.10;6.40;;;;;;;16.44;100.00;97310.17;110537;1241;59743;-66
2023/07/05 02:31:15;;;;;;;9.20;6.60;;;;;;;16.40;100.00;97309.38;110550;1242;71530;-65
2023/07/05 02:33:47;;;;;;;8.50;5.80;;;;;;;16.38;100.00;97309.63;110404;1242;68559;-65
2023/07/05 02:36:18;;;;;;;8.80;6.20;;;;;;;16.37;100.00;97310.91;110507;1240;68680;-67
2023/07/05 02:38:52;;;;;;;7.80;5.60;;;;;;;16.36;100.00;97315.21;110418;1241;59718;-67
2023/07/05 02:41:26;;;;;;;8.20;5.50;;;;;;;16.36;100.00;97321.78;110441;1241;60046;-66
2023/07/05 02:43:56;;;;;;;6.90;5.10;;;;;;;16.34;100.00;97323.14;110453;1242;71379;-65
2023/07/05 02:46:26;;;;;;;7.40;5.10;;;;;;;16.35;100.00;97324.85;110452;1242;69253;-65
2023/07/05 02:48:57;;;;;;;6.20;4.30;;;;;;;16.33;100.00;97325.54;110528;1240;68583;-65
2023/07/05 02:51:31;;;;;;;6.70;5.40;;;;;;;16.28;100.00;97327.39;110599;1243;59712;-66
2023/07/05 02:54:02;;;;;;;6.30;4.90;;;;;;;16.25;100.00;97324.16;110563;1242;59739;-65
2023/07/05 02:56:33;;;;;;;7.10;5.70;;;;;;;16.23;100.00;97322.11;110553;1241;70723;-64
2023/07/05 02:59:04;;;;;;;8.60;6.20;;;;;;;16.24;100.00;97324.98;110174;1245;69241;-65
2023/07/05 03:01:36;;;;;;;8.30;6.10;;;;;;;16.25;100.00;97322.35;110182;1244;68529;-64
2023/07/05 03:04:07;;;;;;;7.40;5.80;;;;;;;16.30;100.00;97317.73;110492;1242;59757;-65
2023/07/05 03:06:38;;;;;;;9.50;6.80;;;;;;;16.32;100.00;97312.09;110506;1241;59773;-65
2023/07/05 03:09:09;;;;;;;10.50;6.00;;;;;;;16.33;100.00;97308.65;110462;1241;71440;-65
2023/07/05 03:11:40;;;;;;;9.60;6.50;;;;;;;16.33;100.00;97312.02;110506;1242;68521;-66
2023/07/05 03:14:11;;;;;;;8.40;6.80;;;;;;;16.33;100.00;97308.83;110406;1244;69295;-65
2023/07/05 03:16:43;;;;;;;12.50;8.20;;;;;;;16.35;100.00;97309.00;110428;1242;59738;-66
2023/07/05 03:19:13;;;;;;;10.80;8.40;;;;;;;16.38;100.00;97310.26;110469;1242;59670;-65
2023/07/05 03:21:44;;;;;;;14.10;8.80;;;;;;;16.37;100.00;97308.23;110212;1242;71253;-65
2023/07/05 03:24:17;;;;;;;13.50;9.90;;;;;;;16.38;100.00;97308.30;110232;1241;68751;-66
2023/07/05 03:26:53;;;;;;;12.50;9.20;;;;;;;16.41;100.00;97318.98;110221;1244;69265;-66
2023/07/05 03:29:24;;;;;;;9.80;8.00;;;;;;;16.45;100.00;97319.29;110287;1242;59673;-64
2023/07/05 03:31:58;;;;;;;8.70;6.90;;;;;;;16.48;100.00;97318.63;110194;1244;59647;-65
2023/07/05 03:34:29;;;;;;;10.10;7.50;;;;;;;16.52;100.00;97320.61;110232;1240;71859;-65
2023/07/05 03:36:58;;;;;;;;;;;;;;;16.60;100.00;97319.06;110249;1243;69216;-65
2023/07/05 03:39:29;;;;;;;8.60;7.00;;;;;;;16.65;100.00;97314.46;110296;1241;68971;-65
2023/07/05 03:42:02;;;;;;;8.50;6.20;;;;;;;16.74;100.00;97315.55;110622;1242;60091;-64
2023/07/05 03:44:34;;;;;;;7.90;6.50;;;;;;;16.79;100.00;97316.13;110612;1242;59747;-66
2023/07/05 03:47:05;;;;;;;8.70;6.30;;;;;;;16.84;100.00;97319.27;110579;1242;70458;-66
2023/07/05 03:49:36;;;;;;;7.50;6.00;;;;;;;16.90;100.00;97321.34;110561;1242;68178;-66
2023/07/05 03:52:06;;;;;;;6.90;5.60;;;;;;;16.96;100.00;97317.34;110455;1241;68535;-65
2023/07/05 03:54:37;;;;;;;6.80;5.90;;;;;;;17.04;100.00;97318.16;110251;1242;59742;-65
2023/07/05 03:57:07;;;;;;;7.00;6.10;;;;;;;17.11;100.00;97317.98;110255;1242;59681;-65
2023/07/05 03:59:39;;;;;;;7.30;6.10;;;;;;;17.18;100.00;97321.50;110562;1242;71245;-65
2023/07/05 04:02:09;;;;;;;9.10;7.80;;;;;;;17.24;100.00;97320.84;110613;1242;68452;-66
2023/07/05 04:04:39;;;;;;;9.90;8.30;;;;;;;17.23;100.00;97323.08;110600;1242;67563;-66
2023/07/05 04:07:11;;;;;;;13.30;7.20;;;;;;;17.21;100.00;97322.57;110547;1243;59727;-68
2023/07/05 04:09:41;;;;;;;7.50;5.90;;;;;;;17.25;100.00;97323.36;110525;1242;59795;-66
2023/07/05 04:12:11;;;;;;;8.80;5.90;;;;;;;17.36;100.00;97321.64;110583;1238;70442;-65
2023/07/05 04:14:41;;;;;;;9.20;6.30;;;;;;;17.46;100.00;97317.79;110599;1242;68882;-67
2023/07/05 04:17:12;;;;;;;6.70;5.00;;;;;;;17.58;100.00;97312.64;110502;1242;68559;-65
2023/07/05 04:19:42;;;;;;;7.80;5.10;;;;;;;17.71;100.00;97320.67;110506;1240;59740;-66
2023/07/05 04:22:11;;;;;;;6.90;5.30;;;;;;;17.81;100.00;97317.52;110613;1242;59678;-67
2023/07/05 04:24:42;;;;;;;7.00;5.80;;;;;;;17.93;100.00;97316.13;110655;1239;71233;-64
2023/07/05 04:27:11;;;;;;;6.90;5.50;;;;;;;18.04;100.00;97313.20;110512;1239;70230;-65
2023/07/05 04:29:40;;;;;;;8.30;6.20;;;;;;;18.15;100.00;97313.06;110522;1239;68310;-65
2023/07/05 04:32:10;;;;;;;8.00;6.40;;;;;;;18.27;100.00;97319.73;110540;1239;59683;-65
2023/07/05 04:34:40;;;;;;;8.40;5.90;;;;;;;18.36;100.00;97321.61;110627;1239;59666;-65
2023/07/05 04:37:11;;;;;;;9.30;7.00;;;;;;;18.42;100.00;97328.27;110628;1239;71255;-64
2023/07/05 04:39:45;;;;;;;8.60;6.70;;;;;;;18.48;100.00;97323.22;110576;1239;69488;-64
2023/07/05 04:42:15;;;;;;;7.90;6.70;;;;;;;18.57;100.00;97316.91;110411;1239;69269;-64
2023/07/05 04:44:45;;;;;;;8.60;6.50;;;;;;;18.64;100.00;97317.27;110741;1242;59687;-64
2023/07/05 04:47:16;;;;;;;8.10;6.30;;;;;;;18.74;100.00;97317.45;110532;1242;59681;-65
2023/07/05 04:49:46;;;;;;;8.00;6.10;;;;;;;18.85;100.00;97320.49;110596;1242;71027;-65
2023/07/05 04:52:16;;;;;;;7.50;6.00;;;;;;;18.99;100.00;97319.50;110616;1238;68619;-64
2023/07/05 04:54:46;;;;;;;8.40;6.00;;;;;;;19.10;100.00;97318.27;110613;1242;68375;-65
2023/07/05 04:57:15;;;;;;;7.50;5.80;;;;;;;19.15;100.00;97317.90;110629;1238;59725;-65
2023/07/05 05:00:05;;;;;;;6.00;5.30;;;;;;;19.29;100.00;97315.29;110585;1242;59713;-65
2023/07/05 05:02:35;;;;;;;7.90;5.90;;;;;;;19.48;100.00;97319.79;110524;1245;72318;-65
2023/07/05 05:05:06;;;;;;;7.30;5.30;;;;;;;19.63;100.00;97320.44;110604;1242;68301;-65
2023/07/05 05:07:35;;;;;;;8.30;5.90;;;;;;;19.80;100.00;97316.96;110565;1241;68205;-65
2023/07/05 05:10:05;;;;;;;7.70;5.20;;;;;;;20.02;100.00;97313.04;110621;1242;59740;-66
2023/07/05 05:12:34;;;;;;;6.20;5.30;;;;;;;20.31;100.00;97308.66;110583;1242;59658;-67
2023/07/05 05:15:05;;;;;;;5.80;4.70;;;;;;;20.65;100.00;97307.70;110547;1241;71448;-65
2023/07/05 05:17:34;;;;;;;5.60;5.10;;;;;;;21.05;100.00;97315.25;110631;1242;70160;-67
2023/07/05 05:20:04;;;;;;;5.90;4.70;;;;;;;21.40;100.00;97317.25;110498;1242;69901;-67
2023/07/05 05:22:33;;;;;;;5.10;4.60;;;;;;;21.91;98.44;97320.38;110443;1242;59894;-65
2023/07/05 05:25:03;;;;;;;4.90;4.40;;;;;;;22.35;94.89;97318.08;110478;1238;59730;-65
2023/07/05 05:27:31;;;;;;;;;;;;;;;22.78;92.95;97313.36;110695;1241;71359;-66
2023/07/05 05:30:00;;;;;;;6.00;5.00;;;;;;;22.96;93.05;97317.44;110640;1241;69130;-66
2023/07/05 05:32:29;;;;;;;;;;;;;;;23.00;89.63;97321.05;110640;1242;70057;-65
2023/07/05 05:34:59;;;;;;;6.20;5.00;;;;;;;23.01;87.95;97325.77;110579;1242;59753;-65
2023/07/05 05:37:29;;;;;;;6.10;4.90;;;;;;;22.86;87.58;97324.58;110617;1240;59702;-65
2023/07/05 05:39:58;;;;;;;5.40;4.30;;;;;;;22.77;87.17;97326.99;110440;1242;71620;-63
2023/07/05 05:42:29;;;;;;;5.60;5.00;;;;;;;22.80;89.58;97326.36;110491;1242;67982;-64
2023/07/05 05:44:58;;;;;;;5.40;4.70;;;;;;;22.93;88.39;97324.86;110332;1241;69233;-65
2023/07/05 05:47:28;;;;;;;6.90;5.10;;;;;;;22.97;86.42;97324.88;110357;1243;59675;-64
2023/07/05 05:49:58;;;;;;;6.70;6.00;;;;;;;22.80;85.64;97326.21;110410;1249;59630;-63
2023/07/05 05:52:27;;;;;;;5.80;5.00;;;;;;;22.81;86.10;97323.59;110372;1241;72083;-65
2023/07/05 05:54:57;;;;;;;6.80;5.20;;;;;;;22.86;85.96;97324.37;110359;1242;69754;-66
2023/07/05 05:57:26;;;;;;;8.00;5.50;;;;;;;22.95;85.74;97324.53;110445;1242;69293;-66
2023/07/05 05:59:55;;;;;;;7.20;4.90;;;;;;;23.01;86.05;97325.27;110429;1242;59699;-65
2023/07/05 06:02:25;;;;;;;6.90;5.40;;;;;;;23.14;85.62;97328.77;110610;1242;59674;-64
2023/07/05 06:04:55;;;;;;;;;;;;;;;23.12;83.19;97332.86;110616;1242;72417;-65
2023/07/05 06:07:27;;;;;;;7.20;4.80;;;;;;;23.26;83.52;97332.13;110529;1242;68400;-65
2023/07/05 06:09:56;;;;;;;6.80;5.50;;;;;;;23.33;82.07;97332.00;110556;1242;69870;-65
2023/07/05 06:12:25;;;;;;;6.90;6.20;;;;;;;23.38;81.27;97333.88;110576;1239;59756;-63
2023/07/05 06:14:55;;;;;;;7.10;5.20;;;;;;;23.40;81.80;97330.58;110560;1241;59658;-66
2023/07/05 06:17:24;;;;;;;;;;;;;;;23.50;80.86;97330.36;110392;1241;72019;-66
2023/07/05 06:19:54;;;;;;;7.40;4.90;;;;;;;23.62;80.36;97331.48;110347;1241;69902;-65
2023/07/05 06:22:23;;;;;;;5.10;4.40;;;;;;;23.61;79.08;97332.23;110412;1242;67450;-65
2023/07/05 06:24:52;;;;;;;;;;;;;;;23.66;79.03;97329.73;110463;1241;59703;-65
2023/07/05 06:27:21;;;;;;;6.50;5.60;;;;;;;23.84;77.92;97328.25;110585;1242;59678;-65
2023/07/05 06:29:51;;;;;;;7.30;5.40;;;;;;;23.90;76.21;97327.46;110542;1242;71341;-64
2023/07/05 06:32:20;;;;;;;8.50;6.00;;;;;;;24.26;75.09;97326.34;110561;1241;69274;-63
2023/07/05 06:34:51;;;;;;;6.00;4.70;;;;;;;24.49;73.07;97321.19;110512;1242;69893;-63
2023/07/05 06:37:20;;;;;;;5.60;4.50;;;;;;;24.67;72.95;97316.66;110570;1242;59728;-65
2023/07/05 06:39:50;;;;;;;5.00;4.20;;;;;;;25.06;70.07;97316.42;110526;1242;59630;-64
2023/07/05 06:42:19;;;;;;;6.00;4.30;;;;;;;25.59;69.67;97317.67;110349;1241;72022;-63
2023/07/05 06:44:55;;;;;;;6.20;5.00;;;;;;;26.09;67.69;97311.38;110567;1241;69430;-64
2023/07/05 06:47:24;;;;;;;6.20;4.80;;;;;;;26.34;65.90;97308.97;110557;1242;68597;-64
2023/07/05 06:49:53;;;;;;;;;;;;;;;26.89;62.15;97301.92;110489;1242;59721;-64
2023/07/05 06:52:23;;;;;;;4.90;4.30;;;;;;;27.21;62.75;97299.05;110427;1242;59679;-65
2023/07/05 06:54:52;;;;;;;4.40;3.70;;;;;;;27.55;64.37;97303.44;110475;1240;71308;-64
2023/07/05 06:57:21;;;;;;;7.00;4.60;;;;;;;27.99;61.86;97302.36;110468;1249;69811;-64
2023/07/05 06:59:50;;;;;;;;;;;;;;;28.02;59.61;97302.29;110412;1249;69974;-65
2023/07/05 07:02:19;;;;;;;;;;;;;;;28.32;58.04;97301.52;110422;1240;59733;-65
2023/07/05 07:04:48;;;;;;;;;;;;;;;28.73;59.62;97294.55;110423;1243;59750;-65
2023/07/05 07:07:17;;;;;;;5.00;4.50;;;;;;;29.22;58.63;97297.19;110418;1242;70708;-65
2023/07/05 07:09:47;;;;;;;;;;;;;;;29.50;56.48;97298.52;110454;1238;69148;-65
2023/07/05 07:12:17;;;;;;;5.40;4.50;;;;;;;29.25;55.17;97296.39;110450;1241;69266;-66
2023/07/05 07:14:46;;;;;;;5.00;4.40;;;;;;;28.74;54.95;97297.77;110329;1242;59711;-65
2023/07/05 07:17:16;;;;;;;5.50;4.70;;;;;;;28.59;55.91;97296.83;110353;1244;59747;-65
2023/07/05 07:19:45;;;;;;;5.10;4.60;;;;;;;28.39;57.03;97295.48;110400;1241;72336;-65
2023/07/05 07:22:15;;;;;;;;;;;;;;;28.49;57.57;97295.63;110417;1241;69265;-65
2023/07/05 07:24:44;;;;;;;5.50;5.00;;;;;;;28.49;56.64;97295.78;110428;1242;69270;-64
2023/07/05 07:27:15;;;;;;;6.70;5.20;;;;;;;28.06;57.07;97294.06;110554;1243;59663;-63
2023/07/05 07:29:45;;;;;;;5.60;4.70;;;;;;;28.50;57.23;97289.70;110463;1246;59631;-64
2023/07/05 07:32:14;;;;;;;5.20;4.70;;;;;;;28.66;56.14;97291.79;110557;1243;71333;-64
2023/07/05 07:34:43;;;;;;;5.90;5.00;;;;;;;28.43;56.52;97291.86;110442;1249;69786;-63
2023/07/05 07:37:12;;;;;;;5.80;4.70;;;;;;;28.86;55.28;97291.86;110496;1243;69862;-64
2023/07/05 07:39:41;;;;;;;5.90;5.30;;;;;;;29.24;55.52;97292.38;110437;1243;59712;-63
2023/07/05 07:42:10;;;;;;;5.00;4.50;;;;;;;29.57;53.72;97295.76;110383;1238;59672;-65
2023/07/05 07:44:39;;;;;;;;;;;;;;;29.81;53.42;97288.80;110412;1243;71436;-63
2023/07/05 07:47:08;;;;;;;;;;;;;;;29.96;52.94;97293.04;110341;1242;68783;-63
2023/07/05 07:49:37;;;;;;;6.00;5.40;;;;;;;30.13;52.51;97294.14;110632;1247;69237;-65
2023/07/05 07:52:10;;;;;;;5.90;4.90;;;;;;;29.85;51.31;97292.00;110594;1242;59811;-65
2023/07/05 07:54:39;;;;;;;5.10;4.70;;;;;;;29.98;52.31;97292.61;110563;1242;59694;-64
2023/07/05 07:57:08;;;;;;;5.70;5.20;;;;;;;30.41;50.92;97293.81;110576;1241;71941;-64
2023/07/05 07:59:41;;;;;;;5.90;5.20;;;;;;;30.50;50.73;97294.46;110539;1238;69764;-64
2023/07/05 08:02:14;;;;;;;5.80;5.20;;;;;;;30.69;50.03;97287.02;110293;1242;69746;-64
2023/07/05 08:04:45;;;;;;;6.10;5.50;;;;;;;30.20;49.23;97294.02;110570;1242;59719;-65
2023/07/05 08:07:14;;;;;;;6.20;4.90;;;;;;;29.98;50.06;97292.45;110545;1248;59659;-65
2023/07/05 08:09:46;;;;;;;;;;;;;;;30.31;50.33;97293.17;110594;1242;70865;-66
2023/07/05 08:12:15;;;;;;;4.80;4.20;;;;;;;30.71;50.92;97288.26;110474;1241;69051;-65
2023/07/05 08:14:44;;;;;;;;;;;;;;;31.06;49.07;97289.14;110623;1241;69173;-65
2023/07/05 08:17:14;;;;;;;4.40;4.00;;;;;;;30.95;48.79;97288.21;110535;1241;59686;-65
2023/07/05 08:19:43;;;;;;;6.50;4.00;;;;;;;31.20;48.89;97285.48;110384;1240;59690;-65
2023/07/05 08:22:13;;;;;;;4.80;4.00;;;;;;;31.33;47.41;97286.29;110454;1242;71865;-65
2023/07/05 08:24:43;;;;;;;5.30;4.10;;;;;;;31.79;47.44;97289.00;110697;1242;69844;-63
2023/07/05 08:27:12;;;;;;;4.90;4.40;;;;;;;32.26;46.25;97291.08;110308;1244;69089;-66
2023/07/05 08:29:42;;;;;;;4.60;4.10;;;;;;;32.59;46.38;97287.45;110469;1242;59646;-65
2023/07/05 08:32:11;;;;;;;4.30;3.90;;;;;;;32.49;45.91;97293.98;110459;1242;59920;-63
2023/07/05 08:34:40;;;;;;;5.10;4.50;;;;;;;32.23;44.80;97290.76;110465;1241;71501;-65
2023/07/05 08:37:10;;;;;;;4.90;4.30;;;;;;;31.84;45.32;97294.30;110493;1242;68591;-64
2023/07/05 08:39:39;;;;;;;4.60;4.20;;;;;;;31.94;45.71;97294.30;110358;1242;69379;-63
2023/07/05 08:42:30;;;;;;;5.30;4.80;;;;;;;32.07;45.47;97293.16;110481;1242;59664;-65
2023/07/05 08:45:20;;;;;;;4.60;4.20;;;;;;;32.11;44.78;97289.06;110420;1241;59738;-64
2023/07/05 08:47:54;;;;;;;4.60;3.90;;;;;;;32.27;45.27;97287.94;110391;1241;71357;-63
2023/07/05 08:50:23;;;;;;;5.20;4.30;;;;;;;32.40;44.86;97287.11;110385;1243;69242;-63
2023/07/05 08:53:20;;;;;;;5.00;4.50;;;;;;;32.61;44.59;97281.36;110168;1244;69880;-64
2023/07/05 08:55:58;;;;;;;6.20;4.90;;;;;;;33.10;43.80;97284.57;110515;1242;59651;-64
2023/07/05 08:58:41;;;;;;;8.30;6.20;;;;;;;33.55;41.91;97284.42;110438;1241;59602;-65
2023/07/05 09:01:25;;;;;;;5.50;5.00;;;;;;;33.75;41.72;97287.30;110516;1245;71343;-63
2023/07/05 09:03:56;;;;;;;5.90;5.30;;;;;;;33.42;41.15;97288.70;110493;1242;69698;-63
2023/07/05 09:06:45;;;;;;;6.30;5.70;;;;;;;32.96;41.34;97284.77;110448;1242;69874;-63
2023/07/05 09:09:41;;;;;;;5.40;4.90;;;;;;;32.99;42.79;97276.73;110418;1241;59703;-65
2023/07/05 09:12:34;;;;;;;4.90;4.50;;;;;;;33.24;41.37;97275.79;110169;1245;59692;-64
2023/07/05 09:15:20;;;;;;;5.90;5.20;;;;;;;33.26;42.23;97270.61;110364;1241;71368;-65
2023/07/05 09:18:00;;;;;;;6.60;5.90;;;;;;;33.68;42.17;97272.14;110461;1242;69840;-63
2023/07/05 09:20:38;;;;;;;7.90;7.10;;;;;;;34.00;40.98;97269.61;110326;1242;68829;-63
2023/07/05 09:23:21;;;;;;;7.80;6.80;;;;;;;33.79;40.65;97266.45;110432;1241;59655;-64
2023/07/05 09:25:57;;;;;;;7.50;6.50;;;;;;;33.61;40.30;97263.16;110541;1240;59708;-64
2023/07/05 09:28:47;;;;;;;7.90;6.10;;;;;;;33.41;40.29;97260.21;110382;1243;71349;-65
2023/07/05 09:31:16;;;;;;;6.90;6.20;;;;;;;33.59;39.90;97257.99;110437;1242;69275;-65
2023/07/05 09:33:52;;;;;;;6.80;5.80;;;;;;;33.19;39.82;97252.69;110376;1239;69925;-64
2023/07/05 09:36:25;;;;;;;6.70;6.10;;;;;;;33.14;40.38;97249.99;110447;1244;59709;-64
2023/07/05 09:39:11;;;;;;;5.90;5.20;;;;;;;32.86;40.45;97248.14;110421;1242;59669;-64
2023/07/05 09:41:46;;;;;;;5.40;4.90;;;;;;;32.84;40.68;97245.58;110297;1248;71867;-65
2023/07/05 09:44:18;;;;;;;6.20;5.60;;;;;;;33.21;40.05;97239.48;110383;1242;69431;-64
2023/07/05 09:46:48;;;;;;;5.70;5.10;;;;;;;32.74;40.02;97233.46;110480;1242;69880;-64
2023/07/05 09:49:19;;;;;;;6.50;5.80;;;;;;;33.38;39.57;97238.63;110495;1249;59667;-64
2023/07/05 09:51:49;;;;;;;5.40;4.90;;;;;;;33.57;39.00;97233.38;110488;1244;59682;-64
2023/07/05 09:54:23;;;;;;;5.90;5.30;;;;;;;33.67;38.84;97235.12;110495;1243;71982;-64
2023/07/05 09:57:02;;;;;;;5.90;5.30;;;;;;;33.62;38.51;97233.41;110427;1243;69255;-64
2023/07/05 09:59:35;;;;;;;4.70;4.20;;;;;;;33.46;38.66;97233.69;110451;1241;69870;-64
2023/07/05 10:02:12;;;;;;;5.50;4.50;;;;;;;33.31;38.60;97228.71;110432;1242;59728;-63
2023/07/05 10:05:13;;;;;;;4.50;4.10;;;;;;;33.75;38.71;97226.59;110403;1242;59753;-64
2023/07/05 10:07:57;;;;;;;5.10;4.30;;;;;;;34.00;37.66;97223.09;110506;1241;72412;-65
2023/07/05 10:10:33;;;;;;;5.30;4.70;;;;;;;34.19;37.30;97219.48;110458;1242;69242;-63
2023/07/05 10:13:12;;;;;;;4.80;4.30;;;;;;;33.96;36.46;97211.77;110462;1239;69150;-65
2023/07/05 10:15:47;;;;;;;5.30;4.50;;;;;;;34.13;36.34;97207.66;110391;1241;59756;-64
2023/07/05 10:18:32;;;;;;;5.00;4.40;;;;;;;33.82;35.96;97203.31;110385;1241;59599;-63
2023/07/05 10:21:14;;;;;;;5.00;4.50;;;;;;;33.98;35.71;97199.70;110407;1242;70662;-65
2023/07/05 10:23:44;;;;;;;5.50;4.80;;;;;;;33.57;35.88;97197.67;110458;1241;70245;-66
2023/07/05 10:26:17;;;;;;;5.00;4.50;;;;;;;33.17;37.29;97195.86;110292;1242;69253;-65
2023/07/05 10:28:46;;;;;;;5.20;4.70;;;;;;;32.89;38.32;97189.70;110277;1242;59744;-64
2023/07/05 10:31:26;;;;;;;;;;;;;;;32.60;38.90;97184.42;110308;1241;59666;-66
2023/07/05 10:34:07;;;;;;;5.80;5.10;;;;;;;32.26;39.02;97184.69;110331;1241;71944;-66
2023/07/05 10:36:44;;;;;;;5.90;5.30;;;;;;;31.96;39.73;97183.73;110390;1241;69816;-66
2023/07/05 10:39:22;;;;;;;5.70;5.20;;;;;;;31.85;39.98;97181.11;110306;1242;68959;-65
2023/07/05 10:41:57;;;;;;;5.00;4.10;;;;;;;31.59;38.48;97183.65;110432;1242;59747;-64
2023/07/05 10:44:39;;;;;;;4.50;3.90;;;;;;;31.63;38.75;97180.82;110159;1244;60104;-64
2023/07/05 10:47:12;;;;;;;5.50;4.40;;;;;;;32.02;38.97;97176.88;110356;1243;71776;-66
2023/07/05 10:49:43;;;;;;;4.90;4.40;;;;;;;32.23;38.44;97170.60;110418;1249;69869;-64
2023/07/05 10:52:16;;;;;;;6.50;4.80;;;;;;;32.46;38.32;97171.02;110418;1242;68318;-64
2023/07/05 10:54:58;;;;;;;4.70;4.20;;;;;;;32.50;38.52;97167.41;110310;1241;59719;-65
2023/07/05 10:58:06;;;;;;;4.80;4.40;;;;;;;32.38;38.03;97172.36;110468;1243;59714;-65
2023/07/05 11:00:38;;;;;;;4.90;4.40;;;;;;;32.31;38.38;97172.83;110139;1245;71475;-64
2023/07/05 11:03:13;;;;;;;5.80;4.60;;;;;;;32.31;38.30;97174.36;110442;1240;69194;-66
2023/07/05 11:05:47;;;;;;;6.60;5.20;;;;;;;32.04;38.71;97171.27;110354;1241;68729;-65
2023/07/05 11:08:27;;;;;;;5.50;5.00;;;;;;;32.38;39.28;97170.92;110450;1243;59699;-64
2023/07/05 11:11:00;;;;;;;4.80;4.30;;;;;;;32.25;39.85;97176.18;110428;1241;59725;-65
2023/07/05 11:13:32;;;;;;;5.10;4.30;;;;;;;32.38;39.61;97169.94;110154;1244;71788;-64
2023/07/05 11:16:03;;;;;;;5.30;4.70;;;;;;;32.42;39.23;97169.59;110330;1242;69744;-64
2023/07/05 11:18:33;;;;;;;4.50;4.00;;;;;;;32.50;39.35;97167.77;110374;1242;69887;-64
2023/07/05 11:21:02;;;;;;;4.60;3.90;;;;;;;32.95;39.19;97167.16;110376;1241;59660;-65
2023/07/05 11:23:43;;;;;;;5.20;4.70;;;;;;;33.37;38.35;97165.05;110475;1241;59740;-64
2023/07/05 11:26:36;;;;;;;7.30;4.80;;;;;;;33.45;38.17;97161.46;110441;1242;71766;-65
2023/07/05 11:29:26;;;;;;;4.40;3.90;;;;;;;33.62;37.71;97152.88;110393;1241;69812;-63
2023/07/05 11:32:06;;;;;;;6.50;4.80;;;;;;;33.78;37.04;97160.20;110274;1242;69850;-64
2023/07/05 11:34:44;;;;;;;4.90;4.40;;;;;;;33.60;36.04;97152.11;110332;1242;59727;-65
2023/07/05 11:37:13;;;;;;;4.40;3.70;;;;;;;33.22;37.02;97153.42;110407;1241;59749;-64
2023/07/05 11:39:47;;;;;;;4.50;3.50;;;;;;;33.46;36.87;97149.60;110363;1242;71973;-64
2023/07/05 11:42:16;;;;;;;4.40;3.00;;;;;;;33.61;37.07;97147.35;110364;1241;69234;-64
2023/07/05 11:45:17;;;;;;;3.90;3.40;;;;;;;33.73;36.16;97142.34;110139;1249;69843;-65
2023/07/05 11:47:48;;;;;;;4.10;3.70;;;;;;;33.53;37.05;97143.63;110421;1242;59740;-65
2023/07/05 11:50:19;;;;;;;5.10;4.30;;;;;;;33.35;37.47;97146.46;110347;1241;59833;-64
2023/07/05 11:52:59;;;;;;;4.20;3.80;;;;;;;33.15;38.09;97142.29;110449;1244;71406;-64
2023/07/05 11:55:35;;;;;;;4.80;4.30;;;;;;;33.23;37.79;97139.18;110347;1241;69839;-66